Padma — 2CWE8 — position and weather

sailwx.info

Track history (hours):
 
Tides and Currents Weather Stations Pressure Air Temp Water Temp Dewpoint Dewpoint Depression Visibility Wind Speed Wind Dir Waves Ship Positions

Padma

Last reported at 2018-Feb-19 23:53 UTC. Time now 2018-Feb-20 00:04 UTC.
Position N 17°05' W 061°54'.

Length 25 m.

Type: Sailing vessel. MMSI: 235076308.

Date/timePositionNaut miles runAvg speedWind from/ knotsBaromVisibWave heightAir tempDewpointWater temp
2018-Feb-19 23:53N 17°05' W 061°54'0 0.0
2018-Feb-19 23:29N 17°05' W 061°54'0 0.0
2018-Feb-19 22:53N 17°05' W 061°54'0 0.0
2018-Feb-19 22:26N 17°05' W 061°54'0 0.0
2018-Feb-19 21:23N 17°05' W 061°54'0 0.0
2018-Feb-19 20:59N 17°05' W 061°54'0 0.0
2018-Feb-19 20:30N 17°05' W 061°54'1 1.9
2018-Feb-19 19:58N 17°06' W 061°54'0 0.0
2018-Feb-19 19:28N 17°06' W 061°54'0 0.0
2018-Feb-19 18:58N 17°06' W 061°54'0 0.0
2018-Feb-19 18:28N 17°06' W 061°54'0 0.0
2018-Feb-19 17:58N 17°06' W 061°54'0 0.0
2018-Feb-19 17:28N 17°06' W 061°54'0 0.0
2018-Feb-19 17:00N 17°06' W 061°54'0 0.0
2018-Feb-19 16:28N 17°06' W 061°54'0 0.0
2018-Feb-19 15:58N 17°06' W 061°54'0 0.0
2018-Feb-19 15:28N 17°06' W 061°54'0 0.0
2018-Feb-19 14:58N 17°06' W 061°54'0 0.0
2018-Feb-19 14:28N 17°06' W 061°54'0 0.0
2018-Feb-19 13:58N 17°06' W 061°54'0 0.0
2018-Feb-19 13:28N 17°06' W 061°54'0 0.0
2018-Feb-19 12:58N 17°06' W 061°54'0 0.0
2018-Feb-19 12:28N 17°06' W 061°54'0 0.0
2018-Feb-19 11:58N 17°06' W 061°54'0 0.0
2018-Feb-19 11:28N 17°06' W 061°54'0 0.0
2018-Feb-19 10:58N 17°06' W 061°54'0 0.0
2018-Feb-19 10:28N 17°06' W 061°54'0 0.0
2018-Feb-19 09:58N 17°06' W 061°54'0 0.0
2018-Feb-19 09:28N 17°06' W 061°54'0 0.0
2018-Feb-19 08:58N 17°06' W 061°54'0 0.0
2018-Feb-19 08:25N 17°06' W 061°54'0 0.0
2018-Feb-19 07:58N 17°06' W 061°54'0 0.0
2018-Feb-19 07:28N 17°06' W 061°54'0 0.0
2018-Feb-19 06:58N 17°06' W 061°54'0 0.0
2018-Feb-19 06:28N 17°06' W 061°54'0 0.0
2018-Feb-19 05:58N 17°06' W 061°54'0 0.0
2018-Feb-19 05:28N 17°06' W 061°54'0 0.0
2018-Feb-19 04:58N 17°06' W 061°54'0 0.0
2018-Feb-19 04:25N 17°06' W 061°54'0 0.0
2018-Feb-19 03:58N 17°06' W 061°54'0 0.0
2018-Feb-19 03:28N 17°06' W 061°54'0 0.0
2018-Feb-19 02:58N 17°06' W 061°54'0 0.0
2018-Feb-19 02:28N 17°06' W 061°54'0 0.0
2018-Feb-19 01:58N 17°06' W 061°54'0 0.0
2018-Feb-19 01:28N 17°06' W 061°54'0 0.0
2018-Feb-19 00:58N 17°06' W 061°54'0 0.0
2018-Feb-19 00:28N 17°06' W 061°54'0 0.0
2018-Feb-18 23:58N 17°06' W 061°54'0 0.0
2018-Feb-18 23:28N 17°06' W 061°54'0 0.0
2018-Feb-18 22:58N 17°06' W 061°54'0 0.0
2018-Feb-18 22:28N 17°06' W 061°54'0 0.0
2018-Feb-18 21:58N 17°06' W 061°54'2 3.3
2018-Feb-18 21:21N 17°05' W 061°56'4 6.9
2018-Feb-18 20:47N 17°01' W 061°55'2 7.9
2018-Feb-18 20:29N 16°60' W 061°53'3 6.9
2018-Feb-18 20:00N 17°01' W 061°50'0 0.0
2018-Feb-18 19:30N 17°01' W 061°50'0 0.0
2018-Feb-18 19:00N 17°01' W 061°50'0 0.0
2018-Feb-18 18:30N 17°01' W 061°50'0 0.0
2018-Feb-18 17:57N 17°01' W 061°50'0 0.0
2018-Feb-18 17:30N 17°01' W 061°50'0 0.0
2018-Feb-18 17:00N 17°01' W 061°50'0 0.0
2018-Feb-18 16:30N 17°01' W 061°50'0 0.0
2018-Feb-18 15:57N 17°01' W 061°50'0 0.0
2018-Feb-18 15:27N 17°01' W 061°50'0 0.0
2018-Feb-18 15:00N 17°01' W 061°50'0 0.0
2018-Feb-18 14:30N 17°01' W 061°50'0 0.0
2018-Feb-18 14:00N 17°01' W 061°50'0 0.0
2018-Feb-18 13:30N 17°01' W 061°50'0 0.0
2018-Feb-18 12:45N 17°01' W 061°50'0 0.0
2018-Feb-18 12:30N 17°01' W 061°50'0 0.0
2018-Feb-18 11:57N 17°01' W 061°50'0 0.0
2018-Feb-18 11:30N 17°01' W 061°50'0 0.0
2018-Feb-18 11:00N 17°01' W 061°50'0 0.0
2018-Feb-18 10:30N 17°01' W 061°50'0 0.0
2018-Feb-18 10:00N 17°01' W 061°50'0 0.0
2018-Feb-18 09:30N 17°01' W 061°50'0 0.0
2018-Feb-18 08:57N 17°01' W 061°50'0 0.0
2018-Feb-18 08:30N 17°01' W 061°50'0 0.0
2018-Feb-18 08:00N 17°01' W 061°50'0 0.0
2018-Feb-18 07:30N 17°01' W 061°50'0 0.0
2018-Feb-18 07:00N 17°01' W 061°50'0 0.0
2018-Feb-18 06:30N 17°01' W 061°50'0 0.0
2018-Feb-18 05:51N 17°01' W 061°50'0 0.0
2018-Feb-18 05:30N 17°01' W 061°50'0 0.0
2018-Feb-18 05:00N 17°01' W 061°50'0 0.0
2018-Feb-18 04:30N 17°01' W 061°50'0 0.0
2018-Feb-18 04:00N 17°01' W 061°50'0 0.0
2018-Feb-18 03:30N 17°01' W 061°50'0 0.0
2018-Feb-18 03:00N 17°01' W 061°50'0 0.0
2018-Feb-18 02:30N 17°01' W 061°50'0 0.0
2018-Feb-18 02:00N 17°01' W 061°50'0 0.0
2018-Feb-18 01:30N 17°01' W 061°50'0 0.0
2018-Feb-18 00:51N 17°01' W 061°50'0 0.0
2018-Feb-18 00:30N 17°01' W 061°50'0 0.0
2018-Feb-18 00:00N 17°01' W 061°50'0 0.0
2018-Feb-17 23:30N 17°01' W 061°50'0 0.0
2018-Feb-17 23:00N 17°01' W 061°50'0 0.0
2018-Feb-17 22:30N 17°01' W 061°50'0 0.0
2018-Feb-17 22:00N 17°01' W 061°50'0 0.0
2018-Feb-17 21:30N 17°01' W 061°50'0 0.0
2018-Feb-17 20:57N 17°01' W 061°50'0 0.0
2018-Feb-17 20:30N 17°01' W 061°50'1 2.9
2018-Feb-17 20:00N 17°00' W 061°49'3 5.6
2018-Feb-17 19:30N 17°00' W 061°46'0 0.1
2018-Feb-17 19:00N 17°01' W 061°46'0 0.0
2018-Feb-17 18:30N 17°01' W 061°46'0 0.0
2018-Feb-17 18:00N 17°01' W 061°46'0 0.0
2018-Feb-17 17:30N 17°01' W 061°46'0 0.0
2018-Feb-17 17:00N 17°01' W 061°46'0 0.0
2018-Feb-17 16:30N 17°01' W 061°46'0 0.0
2018-Feb-17 16:00N 17°01' W 061°46'0 0.0
2018-Feb-17 15:30N 17°01' W 061°46'0 0.0
2018-Feb-17 15:00N 17°01' W 061°46'0 0.0
2018-Feb-17 14:30N 17°01' W 061°46'0 0.0
2018-Feb-17 14:00N 17°01' W 061°46'0 0.0
2018-Feb-17 13:30N 17°01' W 061°46'0 0.0
2018-Feb-17 13:00N 17°01' W 061°46'0 0.0
2018-Feb-17 12:30N 17°01' W 061°46'0 0.0
2018-Feb-17 12:00N 17°01' W 061°46'0 0.0
2018-Feb-17 11:30N 17°01' W 061°46'0 0.0
2018-Feb-17 11:00N 17°01' W 061°46'0 0.0
2018-Feb-17 10:30N 17°01' W 061°46'0 0.0
2018-Feb-17 10:00N 17°01' W 061°46'0 0.0
2018-Feb-17 09:30N 17°01' W 061°46'0 0.0
2018-Feb-17 09:00N 17°01' W 061°46'0 0.0
2018-Feb-17 08:30N 17°01' W 061°46'0 0.0
2018-Feb-17 08:00N 17°01' W 061°46'0 0.0
2018-Feb-17 07:30N 17°01' W 061°46'0 0.0
2018-Feb-17 07:00N 17°01' W 061°46'0 0.0
2018-Feb-17 06:30N 17°01' W 061°46'0 0.0
2018-Feb-17 06:00N 17°01' W 061°46'0 0.0
2018-Feb-17 05:30N 17°01' W 061°46'0 0.0
2018-Feb-17 05:00N 17°01' W 061°46'0 0.0
2018-Feb-17 04:30N 17°01' W 061°46'0 0.0
2018-Feb-17 04:00N 17°01' W 061°46'0 0.0
2018-Feb-17 03:30N 17°01' W 061°46'0 0.0
2018-Feb-17 03:00N 17°01' W 061°46'0 0.0
2018-Feb-17 02:30N 17°01' W 061°46'0 0.0
2018-Feb-17 02:00N 17°01' W 061°46'0 0.0
2018-Feb-17 01:30N 17°01' W 061°46'0 0.0
2018-Feb-17 01:00N 17°01' W 061°46'0 0.0
2018-Feb-17 00:30N 17°01' W 061°46'0 0.0
2018-Feb-17 00:00N 17°01' W 061°46'0 0.0
2018-Feb-16 23:30N 17°01' W 061°46'0 0.0
2018-Feb-16 23:00N 17°01' W 061°46'0 0.0
2018-Feb-16 22:30N 17°01' W 061°46'0 0.0
2018-Feb-16 22:00N 17°01' W 061°46'0 0.0
2018-Feb-16 21:30N 17°01' W 061°46'0 0.0
2018-Feb-16 21:00N 17°01' W 061°46'0 0.0
2018-Feb-16 20:30N 17°01' W 061°46'0 0.0
2018-Feb-16 20:00N 17°01' W 061°46'0 0.0
2018-Feb-16 19:30N 17°01' W 061°46'0 0.0
2018-Feb-16 19:00N 17°01' W 061°46'0 0.0
2018-Feb-16 18:30N 17°01' W 061°46'0 0.0
2018-Feb-16 18:00N 17°01' W 061°46'0 0.0
2018-Feb-16 17:30N 17°01' W 061°46'0 0.0
2018-Feb-16 17:00N 17°01' W 061°46'0 0.0
2018-Feb-16 16:24N 17°01' W 061°46'0 0.0
2018-Feb-16 16:00N 17°01' W 061°46'0 0.0
2018-Feb-16 15:30N 17°01' W 061°46'0 0.0
2018-Feb-16 15:00N 17°01' W 061°46'0 0.0
2018-Feb-16 14:30N 17°01' W 061°46'0 0.0
2018-Feb-16 14:00N 17°01' W 061°46'0 0.0
2018-Feb-16 13:30N 17°01' W 061°46'0 0.0
2018-Feb-16 13:00N 17°01' W 061°46'0 0.0
2018-Feb-16 12:30N 17°01' W 061°46'0 0.0
2018-Feb-16 12:00N 17°01' W 061°46'0 0.0
2018-Feb-16 11:30N 17°01' W 061°46'0 0.0
2018-Feb-16 11:00N 17°01' W 061°46'0 0.0
2018-Feb-16 10:30N 17°01' W 061°46'0 0.0
2018-Feb-16 10:00N 17°01' W 061°46'0 0.0
2018-Feb-16 09:30N 17°01' W 061°46'0 0.0
2018-Feb-16 09:00N 17°01' W 061°46'0 0.0
2018-Feb-16 08:30N 17°01' W 061°46'0 0.0
2018-Feb-16 08:00N 17°01' W 061°46'0 0.0
2018-Feb-16 07:30N 17°01' W 061°46'0 0.0
2018-Feb-16 07:00N 17°01' W 061°46'0 0.0
2018-Feb-16 06:30N 17°01' W 061°46'0 0.0
2018-Feb-16 06:00N 17°01' W 061°46'0 0.0
2018-Feb-16 05:30N 17°01' W 061°46'0 0.0
2018-Feb-16 04:54N 17°01' W 061°46'0 0.0
2018-Feb-16 04:30N 17°01' W 061°46'0 0.0
2018-Feb-16 04:00N 17°01' W 061°46'0 0.0
2018-Feb-16 03:30N 17°01' W 061°46'0 0.0
2018-Feb-16 03:00N 17°01' W 061°46'0 0.0
2018-Feb-16 02:30N 17°01' W 061°46'0 0.0
2018-Feb-16 02:00N 17°01' W 061°46'0 0.0
2018-Feb-16 01:30N 17°01' W 061°46'0 0.0
2018-Feb-16 01:00N 17°01' W 061°46'0 0.0
2018-Feb-16 00:30N 17°01' W 061°46'0 0.0
2018-Feb-16 00:00N 17°01' W 061°46'0 0.0
2018-Feb-15 23:30N 17°01' W 061°46'0 0.0
2018-Feb-15 23:00N 17°01' W 061°46'0 0.1
2018-Feb-15 22:30N 17°01' W 061°46'1 1.5
2018-Feb-15 22:00N 16°60' W 061°46'4 7.1
2018-Feb-15 21:29N 16°60' W 061°50'3 7.2
2018-Feb-15 21:00N 16°59' W 061°53'4 7.2
2018-Feb-15 20:30N 16°57' W 061°57'4 6.7
2018-Feb-15 19:59N 16°56' W 062°00'3 6.6
2018-Feb-15 19:30N 16°55' W 062°04'3 6.6
2018-Feb-15 19:00N 16°54' W 062°07'3 6.6
2018-Feb-15 18:30N 16°52' W 062°10'3 6.5
2018-Feb-15 18:00N 16°50' W 062°12'11 0.6
2018-Feb-14 23:15N 16°39' W 062°12'311.1
2018-Feb-14 23:00N 16°37' W 062°09'611.3
2018-Feb-14 22:30N 16°34' W 062°05'611.2
2018-Feb-14 21:59N 16°30' W 062°00'711.0
2018-Feb-14 21:20N 16°24' W 061°55'510.8
2018-Feb-14 20:50N 16°21' W 061°51'  
2018-Feb-11 20:35N 16°14' W 061°49'1 8.3
2018-Feb-11 20:30N 16°15' W 061°49'4 0.2
2018-Feb-10 23:56N 16°19' W 061°49'2 5.5
2018-Feb-10 23:30N 16°22' W 061°49'610.7
2018-Feb-10 22:59N 16°27' W 061°49'510.7
2018-Feb-10 22:30N 16°32' W 061°49'510.6
2018-Feb-10 22:00N 16°38' W 061°49'510.8
2018-Feb-10 21:30N 16°43' W 061°48'510.6
2018-Feb-10 20:59N 16°48' W 061°48'510.2
2018-Feb-10 20:30N 16°53' W 061°46'510.5
2018-Feb-10 20:00N 16°58' W 061°46'2 4.2
2018-Feb-10 19:30N 17°00' W 061°46'0 0.2
2018-Feb-10 19:00N 17°00' W 061°46'0 0.0
2018-Feb-10 18:30N 17°00' W 061°46'0 0.2
2018-Feb-10 18:00N 17°00' W 061°46'3 6.4
2018-Feb-10 17:30N 16°60' W 061°49'3 6.7
2018-Feb-10 17:00N 16°60' W 061°53'5 7.3
2018-Feb-10 16:16N 17°03' W 061°57'2 9.2
2018-Feb-10 16:00N 17°06' W 061°56'5 9.3
2018-Feb-10 15:30N 17°09' W 061°53'4 9.0
2018-Feb-10 15:00N 17°11' W 061°49'4 8.0
2018-Feb-10 14:30N 17°08' W 061°46'1 1.4
2018-Feb-10 13:58N 17°08' W 061°45'0 0.0
2018-Feb-10 13:28N 17°08' W 061°45'0 0.0
2018-Feb-10 12:58N 17°08' W 061°45'0 0.0
2018-Feb-10 12:28N 17°08' W 061°45'0 0.0
2018-Feb-10 11:58N 17°08' W 061°45'0 0.0
2018-Feb-10 11:28N 17°08' W 061°45'0 0.0
2018-Feb-10 10:58N 17°08' W 061°45'0 0.0
2018-Feb-10 10:28N 17°08' W 061°45'0 0.0
2018-Feb-10 09:58N 17°08' W 061°45'0 0.0
2018-Feb-10 09:28N 17°08' W 061°45'0 0.0
2018-Feb-10 08:58N 17°08' W 061°45'0 0.0
2018-Feb-10 08:28N 17°08' W 061°45'0 0.0
2018-Feb-10 07:58N 17°08' W 061°45'0 0.0
2018-Feb-10 07:28N 17°08' W 061°45'0 0.0
2018-Feb-10 06:58N 17°08' W 061°45'0 0.0
2018-Feb-10 06:28N 17°08' W 061°45'0 0.0
2018-Feb-10 05:58N 17°08' W 061°45'0 0.0
2018-Feb-10 05:28N 17°08' W 061°45'0 0.0
2018-Feb-10 04:58N 17°08' W 061°45'0 0.0
2018-Feb-10 04:28N 17°08' W 061°45'0 0.0
2018-Feb-10 03:58N 17°08' W 061°45'0 0.0
2018-Feb-10 03:28N 17°08' W 061°45'0 0.0
2018-Feb-10 02:58N 17°08' W 061°45'0 0.0
2018-Feb-10 02:28N 17°08' W 061°45'0 0.0
2018-Feb-10 01:58N 17°08' W 061°45'0 0.0
2018-Feb-10 01:28N 17°08' W 061°45'0 0.0
2018-Feb-10 00:58N 17°08' W 061°45'0 0.0
2018-Feb-10 00:28N 17°08' W 061°45'0 0.0
2018-Feb-09 23:58N 17°08' W 061°45'  
Track history (hours):
 
Tides and Currents Weather Stations Pressure Air Temp Water Temp Dewpoint Dewpoint Depression Visibility Wind Speed Wind Dir Waves Ship Positions

Padma

Last reported at 2018-Feb-19 23:53 UTC. Time now 2018-Feb-20 00:04 UTC.
Position N 17°05' W 061°54'.

Length 25 m.

Type: Sailing vessel. MMSI: 235076308.

Date/timePositionNaut miles runAvg speedWind from/ knotsBaromVisibWave heightAir tempDewpointWater temp
2018-Feb-19 23:53N 17°05' W 061°54'0 0.0
2018-Feb-19 23:29N 17°05' W 061°54'0 0.0
2018-Feb-19 22:53N 17°05' W 061°54'0 0.0
2018-Feb-19 22:26N 17°05' W 061°54'0 0.0
2018-Feb-19 21:23N 17°05' W 061°54'0 0.0
2018-Feb-19 20:59N 17°05' W 061°54'0 0.0
2018-Feb-19 20:30N 17°05' W 061°54'1 1.9
2018-Feb-19 19:58N 17°06' W 061°54'0 0.0
2018-Feb-19 19:28N 17°06' W 061°54'0 0.0
2018-Feb-19 18:58N 17°06' W 061°54'0 0.0
2018-Feb-19 18:28N 17°06' W 061°54'0 0.0
2018-Feb-19 17:58N 17°06' W 061°54'0 0.0
2018-Feb-19 17:28N 17°06' W 061°54'0 0.0
2018-Feb-19 17:00N 17°06' W 061°54'0 0.0
2018-Feb-19 16:28N 17°06' W 061°54'0 0.0
2018-Feb-19 15:58N 17°06' W 061°54'0 0.0
2018-Feb-19 15:28N 17°06' W 061°54'0 0.0
2018-Feb-19 14:58N 17°06' W 061°54'0 0.0
2018-Feb-19 14:28N 17°06' W 061°54'0 0.0
2018-Feb-19 13:58N 17°06' W 061°54'0 0.0
2018-Feb-19 13:28N 17°06' W 061°54'0 0.0
2018-Feb-19 12:58N 17°06' W 061°54'0 0.0
2018-Feb-19 12:28N 17°06' W 061°54'0 0.0
2018-Feb-19 11:58N 17°06' W 061°54'0 0.0
2018-Feb-19 11:28N 17°06' W 061°54'0 0.0
2018-Feb-19 10:58N 17°06' W 061°54'0 0.0
2018-Feb-19 10:28N 17°06' W 061°54'0 0.0
2018-Feb-19 09:58N 17°06' W 061°54'0 0.0
2018-Feb-19 09:28N 17°06' W 061°54'0 0.0
2018-Feb-19 08:58N 17°06' W 061°54'0 0.0
2018-Feb-19 08:25N 17°06' W 061°54'0 0.0
2018-Feb-19 07:58N 17°06' W 061°54'0 0.0
2018-Feb-19 07:28N 17°06' W 061°54'0 0.0
2018-Feb-19 06:58N 17°06' W 061°54'0 0.0
2018-Feb-19 06:28N 17°06' W 061°54'0 0.0
2018-Feb-19 05:58N 17°06' W 061°54'0 0.0
2018-Feb-19 05:28N 17°06' W 061°54'0 0.0
2018-Feb-19 04:58N 17°06' W 061°54'0 0.0
2018-Feb-19 04:25N 17°06' W 061°54'0 0.0
2018-Feb-19 03:58N 17°06' W 061°54'0 0.0
2018-Feb-19 03:28N 17°06' W 061°54'0 0.0
2018-Feb-19 02:58N 17°06' W 061°54'0 0.0
2018-Feb-19 02:28N 17°06' W 061°54'0 0.0
2018-Feb-19 01:58N 17°06' W 061°54'0 0.0
2018-Feb-19 01:28N 17°06' W 061°54'0 0.0
2018-Feb-19 00:58N 17°06' W 061°54'0 0.0
2018-Feb-19 00:28N 17°06' W 061°54'0 0.0
2018-Feb-18 23:58N 17°06' W 061°54'0 0.0
2018-Feb-18 23:28N 17°06' W 061°54'0 0.0
2018-Feb-18 22:58N 17°06' W 061°54'0 0.0
2018-Feb-18 22:28N 17°06' W 061°54'0 0.0
2018-Feb-18 21:58N 17°06' W 061°54'2 3.3
2018-Feb-18 21:21N 17°05' W 061°56'4 6.9
2018-Feb-18 20:47N 17°01' W 061°55'2 7.9
2018-Feb-18 20:29N 16°60' W 061°53'3 6.9
2018-Feb-18 20:00N 17°01' W 061°50'0 0.0
2018-Feb-18 19:30N 17°01' W 061°50'0 0.0
2018-Feb-18 19:00N 17°01' W 061°50'0 0.0
2018-Feb-18 18:30N 17°01' W 061°50'0 0.0
2018-Feb-18 17:57N 17°01' W 061°50'0 0.0
2018-Feb-18 17:30N 17°01' W 061°50'0 0.0
2018-Feb-18 17:00N 17°01' W 061°50'0 0.0
2018-Feb-18 16:30N 17°01' W 061°50'0 0.0
2018-Feb-18 15:57N 17°01' W 061°50'0 0.0
2018-Feb-18 15:27N 17°01' W 061°50'0 0.0
2018-Feb-18 15:00N 17°01' W 061°50'0 0.0
2018-Feb-18 14:30N 17°01' W 061°50'0 0.0
2018-Feb-18 14:00N 17°01' W 061°50'0 0.0
2018-Feb-18 13:30N 17°01' W 061°50'0 0.0
2018-Feb-18 12:45N 17°01' W 061°50'0 0.0
2018-Feb-18 12:30N 17°01' W 061°50'0 0.0
2018-Feb-18 11:57N 17°01' W 061°50'0 0.0
2018-Feb-18 11:30N 17°01' W 061°50'0 0.0
2018-Feb-18 11:00N 17°01' W 061°50'0 0.0
2018-Feb-18 10:30N 17°01' W 061°50'0 0.0
2018-Feb-18 10:00N 17°01' W 061°50'0 0.0
2018-Feb-18 09:30N 17°01' W 061°50'0 0.0
2018-Feb-18 08:57N 17°01' W 061°50'0 0.0
2018-Feb-18 08:30N 17°01' W 061°50'0 0.0
2018-Feb-18 08:00N 17°01' W 061°50'0 0.0
2018-Feb-18 07:30N 17°01' W 061°50'0 0.0
2018-Feb-18 07:00N 17°01' W 061°50'0 0.0
2018-Feb-18 06:30N 17°01' W 061°50'0 0.0
2018-Feb-18 05:51N 17°01' W 061°50'0 0.0
2018-Feb-18 05:30N 17°01' W 061°50'0 0.0
2018-Feb-18 05:00N 17°01' W 061°50'0 0.0
2018-Feb-18 04:30N 17°01' W 061°50'0 0.0
2018-Feb-18 04:00N 17°01' W 061°50'0 0.0
2018-Feb-18 03:30N 17°01' W 061°50'0 0.0
2018-Feb-18 03:00N 17°01' W 061°50'0 0.0
2018-Feb-18 02:30N 17°01' W 061°50'0 0.0
2018-Feb-18 02:00N 17°01' W 061°50'0 0.0
2018-Feb-18 01:30N 17°01' W 061°50'0 0.0
2018-Feb-18 00:51N 17°01' W 061°50'0 0.0
2018-Feb-18 00:30N 17°01' W 061°50'0 0.0
2018-Feb-18 00:00N 17°01' W 061°50'0 0.0
2018-Feb-17 23:30N 17°01' W 061°50'0 0.0
2018-Feb-17 23:00N 17°01' W 061°50'0 0.0
2018-Feb-17 22:30N 17°01' W 061°50'0 0.0
2018-Feb-17 22:00N 17°01' W 061°50'0 0.0
2018-Feb-17 21:30N 17°01' W 061°50'0 0.0
2018-Feb-17 20:57N 17°01' W 061°50'0 0.0
2018-Feb-17 20:30N 17°01' W 061°50'1 2.9
2018-Feb-17 20:00N 17°00' W 061°49'3 5.6
2018-Feb-17 19:30N 17°00' W 061°46'0 0.1
2018-Feb-17 19:00N 17°01' W 061°46'0 0.0
2018-Feb-17 18:30N 17°01' W 061°46'0 0.0
2018-Feb-17 18:00N 17°01' W 061°46'0 0.0
2018-Feb-17 17:30N 17°01' W 061°46'0 0.0
2018-Feb-17 17:00N 17°01' W 061°46'0 0.0
2018-Feb-17 16:30N 17°01' W 061°46'0 0.0
2018-Feb-17 16:00N 17°01' W 061°46'0 0.0
2018-Feb-17 15:30N 17°01' W 061°46'0 0.0
2018-Feb-17 15:00N 17°01' W 061°46'0 0.0
2018-Feb-17 14:30N 17°01' W 061°46'0 0.0
2018-Feb-17 14:00N 17°01' W 061°46'0 0.0
2018-Feb-17 13:30N 17°01' W 061°46'0 0.0
2018-Feb-17 13:00N 17°01' W 061°46'0 0.0
2018-Feb-17 12:30N 17°01' W 061°46'0 0.0
2018-Feb-17 12:00N 17°01' W 061°46'0 0.0
2018-Feb-17 11:30N 17°01' W 061°46'0 0.0
2018-Feb-17 11:00N 17°01' W 061°46'0 0.0
2018-Feb-17 10:30N 17°01' W 061°46'0 0.0
2018-Feb-17 10:00N 17°01' W 061°46'0 0.0
2018-Feb-17 09:30N 17°01' W 061°46'0 0.0
2018-Feb-17 09:00N 17°01' W 061°46'0 0.0
2018-Feb-17 08:30N 17°01' W 061°46'0 0.0
2018-Feb-17 08:00N 17°01' W 061°46'0 0.0
2018-Feb-17 07:30N 17°01' W 061°46'0 0.0
2018-Feb-17 07:00N 17°01' W 061°46'0 0.0
2018-Feb-17 06:30N 17°01' W 061°46'0 0.0
2018-Feb-17 06:00N 17°01' W 061°46'0 0.0
2018-Feb-17 05:30N 17°01' W 061°46'0 0.0
2018-Feb-17 05:00N 17°01' W 061°46'0 0.0
2018-Feb-17 04:30N 17°01' W 061°46'0 0.0
2018-Feb-17 04:00N 17°01' W 061°46'0 0.0
2018-Feb-17 03:30N 17°01' W 061°46'0 0.0
2018-Feb-17 03:00N 17°01' W 061°46'0 0.0
2018-Feb-17 02:30N 17°01' W 061°46'0 0.0
2018-Feb-17 02:00N 17°01' W 061°46'0 0.0
2018-Feb-17 01:30N 17°01' W 061°46'0 0.0
2018-Feb-17 01:00N 17°01' W 061°46'0 0.0
2018-Feb-17 00:30N 17°01' W 061°46'0 0.0
2018-Feb-17 00:00N 17°01' W 061°46'0 0.0
2018-Feb-16 23:30N 17°01' W 061°46'0 0.0
2018-Feb-16 23:00N 17°01' W 061°46'0 0.0
2018-Feb-16 22:30N 17°01' W 061°46'0 0.0
2018-Feb-16 22:00N 17°01' W 061°46'0 0.0
2018-Feb-16 21:30N 17°01' W 061°46'0 0.0
2018-Feb-16 21:00N 17°01' W 061°46'0 0.0
2018-Feb-16 20:30N 17°01' W 061°46'0 0.0
2018-Feb-16 20:00N 17°01' W 061°46'0 0.0
2018-Feb-16 19:30N 17°01' W 061°46'0 0.0
2018-Feb-16 19:00N 17°01' W 061°46'0 0.0
2018-Feb-16 18:30N 17°01' W 061°46'0 0.0
2018-Feb-16 18:00N 17°01' W 061°46'0 0.0
2018-Feb-16 17:30N 17°01' W 061°46'0 0.0
2018-Feb-16 17:00N 17°01' W 061°46'0 0.0
2018-Feb-16 16:24N 17°01' W 061°46'0 0.0
2018-Feb-16 16:00N 17°01' W 061°46'0 0.0
2018-Feb-16 15:30N 17°01' W 061°46'0 0.0
2018-Feb-16 15:00N 17°01' W 061°46'0 0.0
2018-Feb-16 14:30N 17°01' W 061°46'0 0.0
2018-Feb-16 14:00N 17°01' W 061°46'0 0.0
2018-Feb-16 13:30N 17°01' W 061°46'0 0.0
2018-Feb-16 13:00N 17°01' W 061°46'0 0.0
2018-Feb-16 12:30N 17°01' W 061°46'0 0.0
2018-Feb-16 12:00N 17°01' W 061°46'0 0.0
2018-Feb-16 11:30N 17°01' W 061°46'0 0.0
2018-Feb-16 11:00N 17°01' W 061°46'0 0.0
2018-Feb-16 10:30N 17°01' W 061°46'0 0.0
2018-Feb-16 10:00N 17°01' W 061°46'0 0.0
2018-Feb-16 09:30N 17°01' W 061°46'0 0.0
2018-Feb-16 09:00N 17°01' W 061°46'0 0.0
2018-Feb-16 08:30N 17°01' W 061°46'0 0.0
2018-Feb-16 08:00N 17°01' W 061°46'0 0.0
2018-Feb-16 07:30N 17°01' W 061°46'0 0.0
2018-Feb-16 07:00N 17°01' W 061°46'0 0.0
2018-Feb-16 06:30N 17°01' W 061°46'0 0.0
2018-Feb-16 06:00N 17°01' W 061°46'0 0.0
2018-Feb-16 05:30N 17°01' W 061°46'0 0.0
2018-Feb-16 04:54N 17°01' W 061°46'0 0.0
2018-Feb-16 04:30N 17°01' W 061°46'0 0.0
2018-Feb-16 04:00N 17°01' W 061°46'0 0.0
2018-Feb-16 03:30N 17°01' W 061°46'0 0.0
2018-Feb-16 03:00N 17°01' W 061°46'0 0.0
2018-Feb-16 02:30N 17°01' W 061°46'0 0.0
2018-Feb-16 02:00N 17°01' W 061°46'0 0.0
2018-Feb-16 01:30N 17°01' W 061°46'0 0.0
2018-Feb-16 01:00N 17°01' W 061°46'0 0.0
2018-Feb-16 00:30N 17°01' W 061°46'0 0.0
2018-Feb-16 00:00N 17°01' W 061°46'0 0.0
2018-Feb-15 23:30N 17°01' W 061°46'0 0.0
2018-Feb-15 23:00N 17°01' W 061°46'0 0.1
2018-Feb-15 22:30N 17°01' W 061°46'1 1.5
2018-Feb-15 22:00N 16°60' W 061°46'4 7.1
2018-Feb-15 21:29N 16°60' W 061°50'3 7.2
2018-Feb-15 21:00N 16°59' W 061°53'4 7.2
2018-Feb-15 20:30N 16°57' W 061°57'4 6.7
2018-Feb-15 19:59N 16°56' W 062°00'3 6.6
2018-Feb-15 19:30N 16°55' W 062°04'3 6.6
2018-Feb-15 19:00N 16°54' W 062°07'3 6.6
2018-Feb-15 18:30N 16°52' W 062°10'3 6.5
2018-Feb-15 18:00N 16°50' W 062°12'11 0.6
2018-Feb-14 23:15N 16°39' W 062°12'311.1
2018-Feb-14 23:00N 16°37' W 062°09'611.3
2018-Feb-14 22:30N 16°34' W 062°05'611.2
2018-Feb-14 21:59N 16°30' W 062°00'711.0
2018-Feb-14 21:20N 16°24' W 061°55'510.8
2018-Feb-14 20:50N 16°21' W 061°51'  
2018-Feb-11 20:35N 16°14' W 061°49'1 8.3
2018-Feb-11 20:30N 16°15' W 061°49'4 0.2
2018-Feb-10 23:56N 16°19' W 061°49'2 5.5
2018-Feb-10 23:30N 16°22' W 061°49'610.7
2018-Feb-10 22:59N 16°27' W 061°49'510.7
2018-Feb-10 22:30N 16°32' W 061°49'510.6
2018-Feb-10 22:00N 16°38' W 061°49'510.8
2018-Feb-10 21:30N 16°43' W 061°48'510.6
2018-Feb-10 20:59N 16°48' W 061°48'510.2
2018-Feb-10 20:30N 16°53' W 061°46'510.5
2018-Feb-10 20:00N 16°58' W 061°46'2 4.2
2018-Feb-10 19:30N 17°00' W 061°46'0 0.2
2018-Feb-10 19:00N 17°00' W 061°46'0 0.0
2018-Feb-10 18:30N 17°00' W 061°46'0 0.2
2018-Feb-10 18:00N 17°00' W 061°46'3 6.4
2018-Feb-10 17:30N 16°60' W 061°49'3 6.7
2018-Feb-10 17:00N 16°60' W 061°53'5 7.3
2018-Feb-10 16:16N 17°03' W 061°57'2 9.2
2018-Feb-10 16:00N 17°06' W 061°56'5 9.3
2018-Feb-10 15:30N 17°09' W 061°53'4 9.0
2018-Feb-10 15:00N 17°11' W 061°49'4 8.0
2018-Feb-10 14:30N 17°08' W 061°46'1 1.4
2018-Feb-10 13:58N 17°08' W 061°45'0 0.0
2018-Feb-10 13:28N 17°08' W 061°45'0 0.0
2018-Feb-10 12:58N 17°08' W 061°45'0 0.0
2018-Feb-10 12:28N 17°08' W 061°45'0 0.0
2018-Feb-10 11:58N 17°08' W 061°45'0 0.0
2018-Feb-10 11:28N 17°08' W 061°45'0 0.0
2018-Feb-10 10:58N 17°08' W 061°45'0 0.0
2018-Feb-10 10:28N 17°08' W 061°45'0 0.0
2018-Feb-10 09:58N 17°08' W 061°45'0 0.0
2018-Feb-10 09:28N 17°08' W 061°45'0 0.0
2018-Feb-10 08:58N 17°08' W 061°45'0 0.0
2018-Feb-10 08:28N 17°08' W 061°45'0 0.0
2018-Feb-10 07:58N 17°08' W 061°45'0 0.0
2018-Feb-10 07:28N 17°08' W 061°45'0 0.0
2018-Feb-10 06:58N 17°08' W 061°45'0 0.0
2018-Feb-10 06:28N 17°08' W 061°45'0 0.0
2018-Feb-10 05:58N 17°08' W 061°45'0 0.0
2018-Feb-10 05:28N 17°08' W 061°45'0 0.0
2018-Feb-10 04:58N 17°08' W 061°45'0 0.0
2018-Feb-10 04:28N 17°08' W 061°45'0 0.0
2018-Feb-10 03:58N 17°08' W 061°45'0 0.0
2018-Feb-10 03:28N 17°08' W 061°45'0 0.0
2018-Feb-10 02:58N 17°08' W 061°45'0 0.0
2018-Feb-10 02:28N 17°08' W 061°45'0 0.0
2018-Feb-10 01:58N 17°08' W 061°45'0 0.0
2018-Feb-10 01:28N 17°08' W 061°45'0 0.0
2018-Feb-10 00:58N 17°08' W 061°45'0 0.0
2018-Feb-10 00:28N 17°08' W 061°45'0 0.0
2018-Feb-09 23:58N 17°08' W 061°45'  

Dump ship's entire track history